createdAt,value
2022-12-01T00:04:20.699Z,13.20
2022-12-01T00:10:02.093Z,14.50
2022-12-01T00:15:29.646Z,18.30
2022-12-01T00:20:56.135Z,14.90
2022-12-01T00:26:19.727Z,12.60
2022-12-01T00:31:41.928Z,13.00
2022-12-01T00:37:05.061Z,13.90
2022-12-01T00:42:27.718Z,10.00
2022-12-01T00:47:49.448Z,12.80
2022-12-01T00:53:11.582Z,12.70
2022-12-01T00:58:33.607Z,12.70
2022-12-01T01:03:55.437Z,13.20
2022-12-01T01:09:17.971Z,13.10
2022-12-01T01:14:39.921Z,11.20
2022-12-01T01:20:02.227Z,11.50
2022-12-01T01:25:24.558Z,10.30
2022-12-01T01:30:46.853Z,10.70
2022-12-01T01:36:10.324Z,9.70
2022-12-01T01:41:33.356Z,9.60
2022-12-01T01:46:54.989Z,10.40
2022-12-01T01:52:17.820Z,10.40
2022-12-01T01:57:42.457Z,8.70
2022-12-01T02:03:05.075Z,10.40
2022-12-01T02:08:27.319Z,11.30
2022-12-01T02:14:00.888Z,11.20
2022-12-01T02:20:20.093Z,10.40
2022-12-01T02:26:04.829Z,11.50
2022-12-01T02:31:49.776Z,10.00
2022-12-01T02:37:19.092Z,12.00
2022-12-01T02:42:53.870Z,12.70
2022-12-01T02:48:29.252Z,14.90
2022-12-01T02:53:51.775Z,12.10
2022-12-01T02:59:15.114Z,12.40
2022-12-01T03:04:50.083Z,13.60
2022-12-01T03:10:20.453Z,12.10
2022-12-01T03:15:54.662Z,11.40
2022-12-01T03:21:35.176Z,11.20
2022-12-01T03:26:58.502Z,11.60
2022-12-01T03:32:26.589Z,10.60
2022-12-01T03:37:59.679Z,11.10
2022-12-01T03:43:26.567Z,9.80
2022-12-01T03:48:48.476Z,10.10
2022-12-01T03:54:19.972Z,11.40
2022-12-01T03:59:43.037Z,8.50
2022-12-01T04:05:11.492Z,10.00
2022-12-01T04:10:33.325Z,11.40
2022-12-01T04:15:56.251Z,12.90
2022-12-01T04:21:18.078Z,10.60
2022-12-01T04:26:40.297Z,11.10
2022-12-01T04:32:02.243Z,11.80
2022-12-01T04:37:24.254Z,13.00
2022-12-01T04:42:46.360Z,12.70
2022-12-01T04:48:08.327Z,11.00
2022-12-01T04:53:30.357Z,10.60
2022-12-01T04:58:52.487Z,13.10
2022-12-01T05:04:14.760Z,10.40
2022-12-01T05:09:36.950Z,13.30
2022-12-01T05:14:58.678Z,13.10
2022-12-01T05:20:41.479Z,12.50
2022-12-01T05:26:05.114Z,11.50
2022-12-01T05:31:27.080Z,10.30
2022-12-01T05:36:49.072Z,10.20
2022-12-01T05:42:10.701Z,12.30
2022-12-01T05:47:32.533Z,13.10
2022-12-01T05:52:54.560Z,13.50
2022-12-01T05:58:16.449Z,13.90
2022-12-01T06:03:38.119Z,12.40
2022-12-01T06:09:00.163Z,10.20
2022-12-01T06:14:22.076Z,10.30
2022-12-01T06:19:44.306Z,10.40
2022-12-01T06:25:07.042Z,13.60
2022-12-01T06:30:29.169Z,12.90
2022-12-01T06:35:58.633Z,11.70
2022-12-01T06:41:21.496Z,11.80
2022-12-01T06:46:43.788Z,12.30
2022-12-01T06:52:05.929Z,12.00
2022-12-01T06:57:27.800Z,12.90
2022-12-01T07:02:50.222Z,11.00
2022-12-01T07:08:12.641Z,9.80
2022-12-01T07:13:35.641Z,9.90
2022-12-01T07:18:57.371Z,10.00
2022-12-01T07:24:19.044Z,10.70
2022-12-01T07:29:41.029Z,9.30
2022-12-01T07:35:02.960Z,11.50
2022-12-01T07:40:25.157Z,7.90
2022-12-01T07:45:47.466Z,10.10
2022-12-01T07:51:11.397Z,16.50
2022-12-01T07:56:33.882Z,17.30
2022-12-01T08:01:55.836Z,16.70
2022-12-01T08:07:17.845Z,14.60
2022-12-01T08:12:39.830Z,12.70
2022-12-01T08:18:02.506Z,12.30
2022-12-01T08:23:24.536Z,11.50
2022-12-01T08:28:47.168Z,12.40
2022-12-01T08:34:09.398Z,12.80
2022-12-01T08:39:31.528Z,9.80
2022-12-01T08:44:53.840Z,8.80
2022-12-01T08:50:16.491Z,11.50
2022-12-01T08:55:38.219Z,11.40
2022-12-01T09:01:05.489Z,11.40
2022-12-01T09:06:27.484Z,12.00
2022-12-01T09:11:49.639Z,11.50
2022-12-01T09:17:11.560Z,11.50
2022-12-01T09:22:34.854Z,17.40
2022-12-01T09:27:56.893Z,17.30
2022-12-01T09:33:18.693Z,16.80
2022-12-01T09:38:40.885Z,12.50
2022-12-01T09:44:15.778Z,15.10
2022-12-01T09:49:44.684Z,15.30
2022-12-01T09:55:12.230Z,13.90
2022-12-01T10:00:37.065Z,13.50
2022-12-01T10:06:28.997Z,14.30
2022-12-01T10:11:55.217Z,13.10
2022-12-01T10:17:29.048Z,13.50
2022-12-01T10:23:21.383Z,13.30
2022-12-01T10:29:05.400Z,12.60
2022-12-01T10:34:33.754Z,11.90
2022-12-01T10:39:57.076Z,14.20
2022-12-01T10:45:27.004Z,12.70
2022-12-01T10:50:52.024Z,14.60
2022-12-01T10:56:21.683Z,11.70
2022-12-01T11:01:48.374Z,11.90
2022-12-01T11:07:25.258Z,15.20
2022-12-01T11:12:55.753Z,14.50
2022-12-01T11:18:36.965Z,19.20
2022-12-01T11:23:59.149Z,17.60
2022-12-01T11:29:36.526Z,14.80
2022-12-01T11:35:02.370Z,13.30
2022-12-01T11:40:27.864Z,14.80
2022-12-01T11:45:50.204Z,15.70
2022-12-01T11:51:17.893Z,16.60
2022-12-01T11:56:40.023Z,12.20
2022-12-01T12:02:05.109Z,14.70
2022-12-01T12:07:34.089Z,12.40
2022-12-01T12:13:17.879Z,15.20
2022-12-01T12:18:45.680Z,12.80
2022-12-01T12:24:26.078Z,13.10
2022-12-01T12:29:48.557Z,15.50
2022-12-01T12:35:19.559Z,18.10
2022-12-01T12:40:47.008Z,13.40
2022-12-01T12:46:16.355Z,11.30
2022-12-01T12:51:43.284Z,13.00
2022-12-01T12:57:09.350Z,12.70
2022-12-01T13:02:44.683Z,12.80
2022-12-01T13:08:11.376Z,12.50
2022-12-01T13:13:54.183Z,10.70
2022-12-01T13:19:22.831Z,16.00
2022-12-01T13:24:44.903Z,17.20
2022-12-01T13:30:17.929Z,16.20
2022-12-01T13:35:40.166Z,13.40
2022-12-01T13:41:24.171Z,15.80
2022-12-01T13:46:46.050Z,14.30
2022-12-01T13:52:22.895Z,20.30
2022-12-01T13:57:49.596Z,21.60
2022-12-01T14:03:17.717Z,18.10
2022-12-01T14:08:48.037Z,15.70
2022-12-01T14:14:09.665Z,16.90
2022-12-01T14:19:35.878Z,15.50
2022-12-01T14:24:57.937Z,16.60
2022-12-01T14:30:42.081Z,22.60
2022-12-01T14:36:26.050Z,19.80
2022-12-01T14:41:51.128Z,22.60
2022-12-01T14:47:18.120Z,21.50
2022-12-01T14:52:43.623Z,13.90
2022-12-01T14:58:08.238Z,15.00
2022-12-01T15:03:44.298Z,14.20
2022-12-01T15:09:34.061Z,11.80
2022-12-01T15:14:56.501Z,13.90
2022-12-01T15:20:33.563Z,13.00
2022-12-01T15:25:56.123Z,21.60
2022-12-01T15:31:18.237Z,19.80
2022-12-01T15:36:40.329Z,13.70
2022-12-01T15:42:03.269Z,18.90
2022-12-01T15:47:46.632Z,18.10
2022-12-01T15:53:33.591Z,15.30
2022-12-01T15:59:06.854Z,12.00
2022-12-01T16:04:32.454Z,18.30
2022-12-01T16:09:59.124Z,17.30
2022-12-01T16:15:22.883Z,17.20
2022-12-01T16:20:44.707Z,14.50
2022-12-01T16:26:08.459Z,14.90
2022-12-01T16:31:30.202Z,18.20
2022-12-01T16:36:52.164Z,24.80
2022-12-01T16:42:16.698Z,19.60
2022-12-01T16:47:38.569Z,19.40
2022-12-01T16:53:00.700Z,15.90
2022-12-01T16:58:22.931Z,13.20
2022-12-01T17:03:44.663Z,18.00
2022-12-01T17:09:07.188Z,12.70
2022-12-01T17:14:29.332Z,15.10
2022-12-01T17:19:52.970Z,18.70
2022-12-01T17:25:15.183Z,15.80
2022-12-01T17:30:37.514Z,24.50
2022-12-01T17:36:01.538Z,16.60
2022-12-01T17:41:25.591Z,19.30
2022-12-01T17:46:47.479Z,12.60
2022-12-01T17:52:09.700Z,14.80
2022-12-01T17:57:31.680Z,13.80
2022-12-01T18:02:55.842Z,18.00
2022-12-01T18:08:17.642Z,19.60
2022-12-01T18:13:41.433Z,16.20
2022-12-01T18:19:04.721Z,13.40
2022-12-01T18:24:26.845Z,16.60
2022-12-01T18:29:48.371Z,14.80
2022-12-01T18:35:10.106Z,11.90
2022-12-01T18:40:32.275Z,10.50
2022-12-01T18:45:54.660Z,11.10
2022-12-01T18:51:17.394Z,10.40
2022-12-01T18:56:39.522Z,11.30
2022-12-01T19:02:01.586Z,12.70
2022-12-01T19:07:29.563Z,16.50
2022-12-01T19:12:51.934Z,23.20
2022-12-01T19:18:14.666Z,16.50
2022-12-01T19:23:36.697Z,13.90
2022-12-01T19:28:59.731Z,11.60
2022-12-01T19:34:21.765Z,12.40
2022-12-01T19:39:43.558Z,10.20
2022-12-01T19:45:06.521Z,12.70
2022-12-01T19:50:28.751Z,13.80
2022-12-01T19:55:50.379Z,17.90
2022-12-01T20:01:14.640Z,12.00
2022-12-01T20:06:37.958Z,10.70
2022-12-01T20:12:02.359Z,13.40
2022-12-01T20:17:24.920Z,12.20
2022-12-01T20:22:46.851Z,13.10
2022-12-01T20:28:09.618Z,13.00
2022-12-01T20:33:31.616Z,23.90
2022-12-01T20:38:54.545Z,14.50
2022-12-01T20:44:16.931Z,13.20
2022-12-01T20:49:39.515Z,17.20
2022-12-01T20:55:01.156Z,12.30
2022-12-01T21:00:23.669Z,16.00
2022-12-01T21:05:45.819Z,16.70
2022-12-01T21:11:13.861Z,13.30
2022-12-01T21:16:35.988Z,12.10
2022-12-01T21:21:58.611Z,12.50
2022-12-01T21:27:20.447Z,13.40
2022-12-01T21:32:44.265Z,13.50
2022-12-01T21:38:14.579Z,13.90
2022-12-01T21:43:39.581Z,13.90
2022-12-01T21:49:01.606Z,11.10
2022-12-01T21:54:23.442Z,11.60
2022-12-01T21:59:45.462Z,11.30
2022-12-01T22:05:24.958Z,10.20
2022-12-01T22:11:08.462Z,13.00
2022-12-01T22:16:33.435Z,13.50
2022-12-01T22:21:59.197Z,12.30
2022-12-01T22:27:31.713Z,9.60
2022-12-01T22:32:57.264Z,12.30
2022-12-01T22:38:30.420Z,8.40
2022-12-01T22:43:55.759Z,9.30
2022-12-01T22:49:22.267Z,11.80
2022-12-01T22:54:46.500Z,11.80
2022-12-01T23:00:17.875Z,11.00
2022-12-01T23:05:39.534Z,10.60
2022-12-01T23:25:49.602Z,13.30
2022-12-01T23:31:12.002Z,12.10
2022-12-01T23:43:48.382Z,11.10
2022-12-01T23:49:14.443Z,12.20
2022-12-01T23:54:38.544Z,11.40
